Portada
METAR-TAF:

METAR-TAF

Aeropuertos :

Aeropuerto Internacional de Jartum

Jartum, Sudán

latitud: 15-36N, longitud: 032-33E, altitud: 382 m

Observación

El informe se hizo hace 13 minutos, a las 20:30 UTC
Viento 10 kt del norte-noroeste
Temperatura 23°C
Humedad 15%
Presión 1015 hPa
Visibilidad 10 km o más
sin nubes por debajo de 1500 m y sin presencia de cumulonimbus.

METAR: HSSS 182030Z 34010KT CAVOK 23/M05 Q1015 NOSIG

Hora: 23:43 (20:43 UTC)

Pronóstico

El informe se hizo hace 3 horas y 43 minutos, a las 17:00 UTC
Pronóstico válido del 18 a las 18 UTC al 19 a las 24 UTC
Viento 10 kt del norte-noreste con ráfagas de 20 kt
Visibilidad 10 km o más
sin nubes por debajo de 1500 m y sin presencia de cumulonimbus.
Probabilidad 30% :
Temporalmente
del 19 a las 02 UTC al 19 a las 08 UTC
Visibilidad: 8000 m

TAF: HSSS 181700Z 1818/1924 03010G20KT CAVOK PROB30 TEMPO 1902/1908 8000

Observaciones y pronósticos meteorológicos de más de 4000 aeropuertos (mensajes METAR y TAF).

Los puntos amarillos y rojos representan las estaciones disponibles.

Ponga el ratón en el punto deseado para ver el nombre de la estación.

Haga clic para ver las observaciones y los pronósticos meteorológicos.

Para cambiar el mapa : haga clic en los botones verdes con una cruz de color negro para hacer un zoom, en el botón verde con un guión para alejar o en las flechas verdes para mapas adyacentes.


METAR-TAF: